createdAt,value
2018-07-01T00:08:53.018Z,60.40
2018-07-01T00:18:55.056Z,66.20
2018-07-01T00:28:56.325Z,66.10
2018-07-01T00:38:58.369Z,67.50
2018-07-01T00:48:59.644Z,67.50
2018-07-01T00:59:01.667Z,69.50
2018-07-01T01:09:02.932Z,69.50
2018-07-01T01:19:04.198Z,69.20
2018-07-01T01:29:05.467Z,69.10
2018-07-01T01:39:06.721Z,70.30
2018-07-01T01:49:07.976Z,70.80
2018-07-01T01:59:09.226Z,71.00
2018-07-01T02:09:11.250Z,75.00
2018-07-01T02:19:12.516Z,74.80
2018-07-01T02:29:13.779Z,75.60
2018-07-01T02:39:15.061Z,76.00
2018-07-01T02:49:16.342Z,76.80
2018-07-01T02:59:17.614Z,77.50
2018-07-01T03:09:19.656Z,79.30
2018-07-01T03:19:20.901Z,79.20
2018-07-01T03:29:22.147Z,79.10
2018-07-01T03:39:23.425Z,81.00
2018-07-01T03:49:24.662Z,80.30
2018-07-01T03:59:25.948Z,80.00
2018-07-01T04:09:27.970Z,78.70
2018-07-01T04:19:29.220Z,78.70
2018-07-01T04:29:33.256Z,75.20
2018-07-01T04:39:34.504Z,75.20
2018-07-01T04:49:35.802Z,74.30
2018-07-01T04:59:37.055Z,70.30
2018-07-01T05:09:39.070Z,65.30
2018-07-01T05:19:41.095Z,66.80
2018-07-01T05:29:42.344Z,66.70
2018-07-01T05:39:43.588Z,64.40
2018-07-01T05:49:44.841Z,62.20
2018-07-01T05:59:46.115Z,60.20
2018-07-01T06:19:55.550Z,48.60
2018-07-01T06:29:56.838Z,48.60
2018-07-01T06:39:58.171Z,47.20
2018-07-01T07:00:06.934Z,44.70
2018-07-01T07:10:09.505Z,40.80
2018-07-01T07:20:11.034Z,40.70
2018-07-01T07:30:12.299Z,43.60
2018-07-01T07:40:13.566Z,40.40
2018-07-01T07:50:15.623Z,41.10
2018-07-01T08:00:16.911Z,41.10
2018-07-01T08:10:18.942Z,39.70
2018-07-01T08:20:20.208Z,39.60
2018-07-01T08:30:21.467Z,40.50
2018-07-01T08:40:23.486Z,35.90
2018-07-01T08:50:25.511Z,36.50
2018-07-01T09:00:27.543Z,36.90
2018-07-01T09:10:28.805Z,36.80
2018-07-01T09:20:30.863Z,21.70
2018-07-01T09:30:32.158Z,21.60
2018-07-01T09:40:33.429Z,22.80
2018-07-01T09:50:35.484Z,21.80
2018-07-01T10:00:36.748Z,21.80
2018-07-01T10:10:38.014Z,22.30
2018-07-01T10:20:40.046Z,23.60
2018-07-01T10:30:41.328Z,23.60
2018-07-01T10:40:43.369Z,33.10
2018-07-01T10:50:44.627Z,32.80
2018-07-01T11:00:45.909Z,35.40
2018-07-01T11:10:47.182Z,37.80
2018-07-01T11:20:48.443Z,40.40
2018-07-01T11:30:49.714Z,40.70
2018-07-01T11:40:51.782Z,38.60
2018-07-01T11:50:53.200Z,38.60
2018-07-01T12:00:54.508Z,39.10
2018-07-01T12:10:55.775Z,42.10
2018-07-01T12:20:57.034Z,39.30
2018-07-01T12:30:58.308Z,42.50
2018-07-01T12:41:00.338Z,41.90
2018-07-01T12:51:02.682Z,41.90
2018-07-01T13:01:03.929Z,41.40
2018-07-01T13:21:12.148Z,42.30
2018-07-01T13:31:13.587Z,43.60
2018-07-01T13:51:21.351Z,42.80
2018-07-01T14:01:22.590Z,42.00
2018-07-01T14:11:23.830Z,42.70
2018-07-01T14:21:25.167Z,44.20
2018-07-01T14:31:27.218Z,43.70
2018-07-01T14:41:28.494Z,43.70
2018-07-01T14:51:29.763Z,44.10
2018-07-01T15:01:31.793Z,42.90
2018-07-01T15:11:33.880Z,42.40
2018-07-01T15:21:35.170Z,42.40
2018-07-01T15:31:36.442Z,45.20
2018-07-01T15:41:37.717Z,45.60
2018-07-01T16:01:45.935Z,47.40
2018-07-01T16:11:47.224Z,49.00
2018-07-01T16:21:48.492Z,46.40
2018-07-01T16:31:50.544Z,45.70
2018-07-01T16:41:51.821Z,45.60
2018-07-01T16:51:53.105Z,44.80
2018-07-01T17:01:55.151Z,45.30
2018-07-01T17:11:56.471Z,45.30
2018-07-01T17:21:57.747Z,45.80
2018-07-01T17:31:59.026Z,45.10
2018-07-01T17:42:00.294Z,46.60
2018-07-01T17:52:07.545Z,47.60
2018-07-01T18:02:08.824Z,47.60
2018-07-01T18:12:10.849Z,47.80
2018-07-01T18:22:21.722Z,47.70
2018-07-01T18:32:13.404Z,47.60
2018-07-01T18:42:14.666Z,49.10
2018-07-01T18:52:15.937Z,51.70
2018-07-01T19:02:17.233Z,50.30
2018-07-01T19:12:18.522Z,52.20
2018-07-01T19:22:19.793Z,51.80
2018-07-01T19:32:21.066Z,53.10
2018-07-01T19:42:22.465Z,52.80
2018-07-01T19:52:23.719Z,51.90
2018-07-01T20:02:24.946Z,54.20
2018-07-01T20:12:26.212Z,53.70
2018-07-01T20:22:27.525Z,58.00
2018-07-01T20:42:37.651Z,58.50
2018-07-01T20:52:39.740Z,60.10
2018-07-01T21:02:40.990Z,60.00
2018-07-01T21:12:42.255Z,60.90
2018-07-01T21:22:44.299Z,62.60
2018-07-01T21:32:45.579Z,62.50
2018-07-01T21:42:46.870Z,63.00
2018-07-01T21:52:48.143Z,63.60
2018-07-01T22:02:50.206Z,64.10
2018-07-01T22:12:51.491Z,64.20
2018-07-01T22:22:52.791Z,66.40
2018-07-01T22:32:54.043Z,64.40
2018-07-01T22:42:55.306Z,66.90
2018-07-01T22:52:56.582Z,68.40
2018-07-01T23:02:57.836Z,69.10
2018-07-01T23:12:59.869Z,69.20
2018-07-01T23:23:01.124Z,69.20
2018-07-01T23:33:02.420Z,69.20
2018-07-01T23:43:03.688Z,72.40
2018-07-01T23:53:04.958Z,69.90
